Private Wetterstation Nrnberg - Katzwang
Wetterdaten: Mrz 2011
Datum Temp. A. Feuchte A. Luftdruck Regen Wind Richtung Taupunkt Windchill Windben
01.03.2011 2,0 C 73 % 1026 hPa 0,0 l/m 5,8 km/h O -2,5 C 1,2 C 6,8 km/h
02.03.2011 3,5 C 45 % 1025 hPa 0,0 l/m 14,5 km/h O -8,0 C -1,8 C 21,5 km/h
03.03.2011 -0,4 C 71 % 1025 hPa 0,0 l/m 2,7 km/h NO -5,1 C -1,3 C 3,7 km/h
04.03.2011 1,4 C 74 % 1025 hPa 0,0 l/m 0,0 km/h N-NO -3,0 C 1,4 C 1,0 km/h
05.03.2011 1,7 C 73 % 1020 hPa 0,0 l/m 0,0 km/h N -3,0 C 1,7 C 1,0 km/h
06.03.2011 0,0 C 65 % 1025 hPa 0,0 l/m 0,7 km/h N-NO -6,0 C 0,0 C 1,7 km/h
07.03.2011 -0,7 C 55 % 1030 hPa 0,0 l/m 6,0 km/h O -9,3 C -2,4 C 8,4 km/h
08.03.2011 1,6 C 58 % 1023 hPa 0,0 l/m 1,7 km/h O -6,3 C 1,6 C 2,7 km/h
09.03.2011 8,4 C 63 % 1016 hPa 0,0 l/m 8,4 km/h W-NW 1,2 C 6,3 C 9,4 km/h
10.03.2011 7,8 C 69 % 1015 hPa 0,0 l/m 5,7 km/h W-NW 2,3 C 6,7 C 6,7 km/h
11.03.2011 7,0 C 66 % 1016 hPa 0,0 l/m 3,1 km/h W-NW 1,1 C 6,6 C 4,1 km/h
12.03.2011 6,8 C 65 % 1007 hPa 0,0 l/m 0,9 km/h NO 0,1 C 6,8 C 1,9 km/h
13.03.2011 8,5 C 71 % 1005 hPa 0,0 l/m 0,7 km/h O-NO 3,4 C 8,5 C 1,7 km/h
14.03.2011 8,6 C 76 % 1014 hPa 0,0 l/m 1,4 km/h O 4,3 C 8,6 C 2,4 km/h
15.03.2011 10,7 C 66 % 1012 hPa 0,0 l/m 6,4 km/h O 4,1 C 9,7 C 7,3 km/h
16.03.2011 10,0 C 80 % 1003 hPa 0,0 l/m 1,4 km/h N-NO 6,6 C 10,0 C 2,4 km/h
17.03.2011 6,9 C 91 % 1004 hPa 4,7 l/m 4,1 km/h W-NW 5,5 C 6,9 C 5,1 km/h
18.03.2011 5,4 C 89 % 1019 hPa 3,6 l/m 3,4 km/h W-NW 3,8 C 4,1 C 4,4 km/h
19.03.2011 3,0 C 73 % 1027 hPa 0,0 l/m 2,6 km/h N-NO -1,7 C 2,3 C 3,6 km/h
20.03.2011 1,8 C 70 % 1030 hPa 0,0 l/m 1,7 km/h NO -3,7 C 1,7 C 2,7 km/h
21.03.2011 3,5 C 67 % 1032 hPa 0,0 l/m 0,0 km/h O -2,7 C 3,5 C 1,0 km/h
22.03.2011 5,5 C 64 % 1033 hPa 0,0 l/m 0,0 km/h N-NO -1,4 C 5,5 C 1,0 km/h
23.03.2011 7,5 C 71 % 1034 hPa 0,0 l/m 2,6 km/h N-NO 2,0 C 7,1 C 3,6 km/h
24.03.2011 7,4 C 62 % 1029 hPa 0,0 l/m 2,6 km/h N-NO -0,3 C 6,9 C 3,6 km/h
25.03.2011 8,8 C 65 % 1014 hPa 0,0 l/m 2,6 km/h W-NW 1,9 C 8,4 C 3,6 km/h
26.03.2011 7,4 C 70 % 1013 hPa 0,0 l/m 3,3 km/h N-NO 2,1 C 7,4 C 4,3 km/h
27.03.2011 8,4 C 68 % 1011 hPa 0,0 l/m 0,0 km/h N-NO 2,4 C 8,4 C 1,0 km/h
28.03.2011 7,8 C 77 % 1011 hPa 0,0 l/m 2,4 km/h N-NO 3,8 C 7,3 C 3,4 km/h
29.03.2011 8,5 C 64 % 1013 hPa 0,0 l/m 0,5 km/h N 1,5 C 8,5 C 1,5 km/h
30.03.2011 11,5 C 65 % 1014 hPa 0,0 l/m 2,9 km/h W-NW 4,4 C 11,5 C 3,9 km/h
31.03.2011 12,1 C 80 % 1017 hPa 2,6 l/m 4,5 km/h W-NW 8,3 C 12,1 C 5,5 km/h
Min-Datum 07.03.11 02.03.11 17.03.11 3 Tage 01.03.11 - 08.03.11 08.03.11 01.03.11
Min-Zeit 04:30 13:20 03:00 - 00:00 - 06:40 01:40 00:00
Minimum -6,6 C 24 % 999 hPa - 0,0 km/h - -12,1 C -16,2 C 1,0 km/h
Max-Datum 30.03.11 18.03.11 23.03.11 17.03.11 01.03.11 - 31.03.11 30.03.11 10.03.11
Max-Zeit 14:30 03:20 08:40 17:30 10:50 - 17:30 14:30 12:20
Maximum 19,3 C 94 % 1036 hPa 4,7 l/m 34,9 km/h
O
- 10,5 C 19,3 C 57,8 km/h
W-NW
Durchschnitt 5,9 C 69 % 1019 hPa #10,9 l/m 3,0 km/h NO 0,2 C 5,3 C 4,2 km/h

Durchschnitt Minimum Temp.-0,3 C
Durchschnitt Maximum Temp.12,6 C